Terminal Aerodrome Forecast
Issued by NWS Grand Forks, ND

Home | Current Version | Previous Version | Text Only | Print | Product List | Glossary Off
Versions: 1 2 3 4 5 6 7 8 9 10 11 12 13 14 15 16 17 18 19 20 21 22 23 24

589
FTUS43 KFGF 141517 AAB
TAFFAR
TAF AMD
KFAR 141517Z 1415/1512 VRB06KT P6SM BKN025
      TEMPO 1415/1416 1/2SM FG VV002
     FM141800 04007KT P6SM BKN040
     FM142200 VRB06KT P6SM SCT100
     FM151000 VRB04KT 3SM BR SCT200=

USA.gov is the U.S. government's official web portal to all federal, state and local government web resources and services.